Terminal Aerodrome Forecast
Issued by NWS Jacksonville, FL

Home | Current Version | Previous Version | Text Only | Print | Product List | Glossary On
Versions: 1 2 3 4 5 6 7 8 9 10 11 12 13 14 15 16 17 18 19 20 21 22 23 24 25 26 27 28 29 30
000
FTUS42 KJAX 120200 AAB
TAFGNV
TAF AMD
KGNV 120205Z 1202/1224 VRB05KT P6SM -SHRA FEW025 BKN120 OVC250
     FM120300 00000KT P6SM BKN150 BKN250
      TEMPO 1209/1212 5SM BR
     FM121300 12005KT P6SM SCT020 SCT150 BKN250
     FM121800 09008KT P6SM VCTS SCT030CB SCT100 SCT250 PROB30
      1219/1223 VRB15G25KT 3SM TSRA BR BKN030CB BKN100 BKN250=

USA.gov is the U.S. government's official web portal to all federal, state and local government web resources and services.